createdAt,value
2023-05-01T00:00:06.559Z,15.49
2023-05-01T00:02:35.870Z,15.63
2023-05-01T00:05:03.320Z,15.59
2023-05-01T00:07:31.106Z,15.57
2023-05-01T00:09:58.314Z,15.48
2023-05-01T00:12:25.907Z,15.31
2023-05-01T00:14:54.234Z,15.53
2023-05-01T00:17:22.750Z,15.51
2023-05-01T00:19:53.568Z,15.50
2023-05-01T00:22:21.271Z,15.48
2023-05-01T00:24:49.067Z,15.47
2023-05-01T00:27:16.116Z,15.43
2023-05-01T00:29:42.960Z,15.31
2023-05-01T00:32:10.150Z,15.31
2023-05-01T00:34:36.998Z,15.35
2023-05-01T00:37:04.714Z,15.31
2023-05-01T00:39:31.432Z,15.22
2023-05-01T00:41:58.157Z,15.20
2023-05-01T00:44:24.890Z,15.18
2023-05-01T00:46:51.765Z,15.12
2023-05-01T00:49:18.616Z,15.14
2023-05-01T00:51:49.442Z,15.14
2023-05-01T00:54:16.247Z,15.20
2023-05-01T00:56:43.259Z,15.04
2023-05-01T00:59:10.506Z,15.02
2023-05-01T01:01:37.412Z,15.15
2023-05-01T01:04:04.511Z,15.13
2023-05-01T01:06:52.689Z,15.05
2023-05-01T01:09:32.966Z,15.05
2023-05-01T01:12:09.029Z,15.11
2023-05-01T01:15:17.322Z,14.98
2023-05-01T01:17:51.565Z,15.01
2023-05-01T01:20:39.714Z,15.00
2023-05-01T01:23:25.385Z,14.90
2023-05-01T01:26:17.398Z,14.97
2023-05-01T01:29:04.691Z,14.96
2023-05-01T01:31:53.755Z,14.94
2023-05-01T01:34:33.145Z,14.92
2023-05-01T01:37:11.699Z,14.76
2023-05-01T01:39:58.153Z,15.04
2023-05-01T01:42:30.126Z,14.85
2023-05-01T01:45:02.967Z,14.90
2023-05-01T01:47:33.400Z,14.69
2023-05-01T01:50:05.063Z,14.77
2023-05-01T01:52:35.326Z,14.78
2023-05-01T01:55:09.706Z,14.58
2023-05-01T01:57:43.817Z,14.59
2023-05-01T02:00:12.596Z,14.40
2023-05-01T02:02:48.053Z,14.41
2023-05-01T02:05:17.184Z,14.95
2023-05-01T02:07:46.975Z,14.45
2023-05-01T02:10:15.054Z,14.27
2023-05-01T02:12:45.996Z,14.48
2023-05-01T02:15:17.530Z,14.30
2023-05-01T02:17:44.847Z,14.25
2023-05-01T02:20:12.997Z,14.42
2023-05-01T02:22:40.956Z,14.68
2023-05-01T02:25:11.776Z,14.86
2023-05-01T02:27:45.009Z,14.73
2023-05-01T02:30:12.346Z,14.75
2023-05-01T02:32:39.079Z,14.49
2023-05-01T02:35:06.633Z,14.46
2023-05-01T02:37:33.493Z,14.54
2023-05-01T02:40:04.008Z,14.58
2023-05-01T02:42:33.140Z,14.37
2023-05-01T02:45:09.251Z,14.61
2023-05-01T02:47:39.282Z,14.67
2023-05-01T02:50:08.113Z,14.70
2023-05-01T02:52:35.027Z,14.74
2023-05-01T02:55:21.669Z,14.78
2023-05-01T02:57:51.283Z,14.69
2023-05-01T03:00:18.763Z,14.57
2023-05-01T03:02:46.488Z,14.50
2023-05-01T03:05:13.847Z,14.30
2023-05-01T03:07:40.483Z,14.64
2023-05-01T03:10:07.800Z,14.79
2023-05-01T03:12:34.480Z,14.71
2023-05-01T03:15:01.143Z,14.75
2023-05-01T03:17:31.641Z,14.68
2023-05-01T03:19:58.547Z,14.67
2023-05-01T03:22:25.259Z,14.68
2023-05-01T03:24:51.940Z,14.55
2023-05-01T03:27:18.567Z,14.47
2023-05-01T03:29:45.465Z,14.23
2023-05-01T03:32:12.227Z,14.42
2023-05-01T03:34:38.974Z,14.30
2023-05-01T03:37:06.361Z,14.50
2023-05-01T03:39:33.071Z,14.41
2023-05-01T03:42:18.188Z,14.53
2023-05-01T03:44:45.716Z,14.44
2023-05-01T03:47:13.045Z,14.51
2023-05-01T03:49:43.602Z,14.45
2023-05-01T03:52:14.552Z,14.32
2023-05-01T03:54:42.348Z,14.39
2023-05-01T03:57:20.763Z,14.42
2023-05-01T03:59:47.491Z,14.35
2023-05-01T04:02:14.253Z,14.51
2023-05-01T04:04:41.690Z,14.33
2023-05-01T04:07:08.391Z,14.33
2023-05-01T04:09:35.524Z,14.40
2023-05-01T04:12:02.337Z,14.31
2023-05-01T04:14:29.369Z,13.86
2023-05-01T04:16:56.582Z,13.88
2023-05-01T04:19:23.479Z,14.07
2023-05-01T04:21:54.176Z,14.38
2023-05-01T04:24:21.101Z,14.05
2023-05-01T04:26:47.769Z,14.03
2023-05-01T04:29:14.520Z,14.11
2023-05-01T04:31:41.692Z,14.33
2023-05-01T04:34:08.719Z,14.16
2023-05-01T04:36:37.069Z,14.11
2023-05-01T04:39:04.006Z,14.30
2023-05-01T04:41:30.974Z,14.41
2023-05-01T04:43:57.667Z,14.29
2023-05-01T04:46:24.375Z,14.17
2023-05-01T04:48:51.248Z,14.13
2023-05-01T04:51:18.056Z,14.24
2023-05-01T04:53:44.705Z,14.22
2023-05-01T04:56:20.241Z,14.15
2023-05-01T04:58:48.520Z,14.25
2023-05-01T05:01:19.650Z,14.03
2023-05-01T05:03:49.541Z,14.06
2023-05-01T05:06:17.008Z,14.32
2023-05-01T05:08:44.015Z,14.12
2023-05-01T05:11:11.831Z,13.69
2023-05-01T05:13:58.917Z,13.71
2023-05-01T05:16:25.900Z,14.02
2023-05-01T05:18:56.122Z,14.05
2023-05-01T05:21:22.913Z,13.83
2023-05-01T05:23:55.985Z,13.87
2023-05-01T05:26:23.214Z,13.90
2023-05-01T05:28:50.904Z,13.77
2023-05-01T05:31:17.590Z,13.68
2023-05-01T05:33:44.726Z,13.83
2023-05-01T05:36:13.688Z,14.04
2023-05-01T05:38:42.930Z,14.18
2023-05-01T05:41:13.580Z,14.18
2023-05-01T05:43:40.244Z,14.35
2023-05-01T05:46:10.395Z,14.07
2023-05-01T05:48:38.418Z,14.23
2023-05-01T05:51:05.878Z,14.34
2023-05-01T05:53:32.603Z,14.27
2023-05-01T05:55:59.376Z,14.07
2023-05-01T05:58:26.380Z,14.04
2023-05-01T06:00:54.547Z,14.18
2023-05-01T06:03:22.013Z,14.16
2023-05-01T06:05:50.762Z,13.98
2023-05-01T06:08:17.825Z,14.30
2023-05-01T06:10:44.836Z,14.46
2023-05-01T06:13:14.073Z,14.55
2023-05-01T06:15:47.760Z,14.63
2023-05-01T06:18:14.685Z,14.50
2023-05-01T06:20:41.614Z,14.70
2023-05-01T06:23:09.627Z,14.74
2023-05-01T06:25:45.373Z,14.74
2023-05-01T06:28:12.007Z,14.74
2023-05-01T06:30:38.691Z,14.54
2023-05-01T06:33:05.412Z,14.46
2023-05-01T06:35:33.070Z,14.77
2023-05-01T06:38:00.288Z,14.89
2023-05-01T06:40:27.027Z,14.79
2023-05-01T06:42:54.301Z,14.56
2023-05-01T06:45:27.365Z,14.63
2023-05-01T06:47:54.308Z,14.38
2023-05-01T06:50:21.079Z,14.52
2023-05-01T06:52:47.789Z,14.16
2023-05-01T06:55:14.551Z,14.62
2023-05-01T06:57:41.926Z,14.70
2023-05-01T07:00:10.796Z,14.15
2023-05-01T07:02:38.290Z,14.35
2023-05-01T07:05:05.615Z,14.84
2023-05-01T07:07:32.502Z,14.47
2023-05-01T07:09:59.441Z,14.95
2023-05-01T07:12:26.742Z,14.85
2023-05-01T07:14:53.449Z,14.86
2023-05-01T07:17:20.101Z,14.45
2023-05-01T07:19:46.811Z,15.03
2023-05-01T07:22:13.488Z,15.10
2023-05-01T07:24:40.260Z,15.07
2023-05-01T07:27:07.273Z,15.15
2023-05-01T07:29:36.882Z,15.16
2023-05-01T07:32:05.783Z,15.23
2023-05-01T07:34:32.992Z,15.30
2023-05-01T07:36:59.608Z,15.21
2023-05-01T07:39:26.366Z,15.24
2023-05-01T07:41:52.982Z,14.64
2023-05-01T07:44:19.669Z,14.98
2023-05-01T07:46:47.095Z,15.14
2023-05-01T07:49:13.754Z,15.05
2023-05-01T07:51:40.620Z,15.37
2023-05-01T07:54:07.414Z,15.40
2023-05-01T07:56:34.078Z,15.65
2023-05-01T07:59:00.901Z,15.59
2023-05-01T08:01:27.674Z,15.65
2023-05-01T08:03:54.452Z,15.68
2023-05-01T08:06:21.264Z,15.38
2023-05-01T08:08:48.028Z,15.72
2023-05-01T08:11:14.787Z,15.74
2023-05-01T08:13:41.453Z,15.86
2023-05-01T08:16:08.208Z,15.72
2023-05-01T08:18:34.907Z,15.76
2023-05-01T08:21:01.729Z,15.50
2023-05-01T08:23:28.500Z,15.52
2023-05-01T08:25:55.219Z,15.50
2023-05-01T08:28:23.047Z,15.57
2023-05-01T08:30:50.153Z,15.38
2023-05-01T08:33:16.928Z,15.41
2023-05-01T08:35:43.655Z,15.17
2023-05-01T08:38:11.781Z,15.43
2023-05-01T08:40:41.101Z,15.73
2023-05-01T08:43:08.200Z,15.45
2023-05-01T08:45:37.559Z,15.54
2023-05-01T08:48:07.746Z,15.72
2023-05-01T08:50:36.489Z,15.82
2023-05-01T08:53:05.111Z,15.69
2023-05-01T08:55:33.344Z,16.07
2023-05-01T08:58:01.848Z,16.25
2023-05-01T09:00:29.461Z,16.31
2023-05-01T09:03:00.090Z,16.69
2023-05-01T09:05:27.092Z,16.90
2023-05-01T09:07:55.157Z,17.00
2023-05-01T09:10:22.328Z,16.98
2023-05-01T09:12:55.215Z,16.87
2023-05-01T09:15:22.756Z,16.87
2023-05-01T09:17:50.579Z,16.80
2023-05-01T09:20:19.265Z,16.68
2023-05-01T09:22:46.121Z,16.88
2023-05-01T09:25:13.078Z,17.22
2023-05-01T09:27:39.716Z,17.49
2023-05-01T09:30:07.589Z,17.87
2023-05-01T09:32:34.474Z,18.02
2023-05-01T09:35:12.492Z,18.01
2023-05-01T09:37:40.903Z,17.99
2023-05-01T09:40:13.016Z,18.15
2023-05-01T09:42:49.518Z,18.08
2023-05-01T09:45:17.480Z,18.18
2023-05-01T09:47:45.598Z,18.10
2023-05-01T09:50:29.250Z,18.04
2023-05-01T09:52:55.993Z,17.74
2023-05-01T09:55:25.421Z,17.70
2023-05-01T09:57:52.931Z,17.90
2023-05-01T10:00:22.105Z,18.07
2023-05-01T10:02:50.358Z,18.10
2023-05-01T10:05:18.252Z,18.21
2023-05-01T10:08:02.058Z,18.10
2023-05-01T10:10:29.415Z,17.88
2023-05-01T10:12:56.615Z,17.65
2023-05-01T10:15:26.602Z,17.37
2023-05-01T10:17:54.361Z,17.89
2023-05-01T10:20:21.603Z,18.15
2023-05-01T10:22:48.882Z,18.14
2023-05-01T10:25:17.868Z,18.23
2023-05-01T10:27:44.729Z,18.43
2023-05-01T10:30:11.712Z,18.31
2023-05-01T10:32:41.035Z,18.16
2023-05-01T10:35:19.571Z,18.33
2023-05-01T10:37:48.478Z,18.33
2023-05-01T10:40:40.435Z,18.15
2023-05-01T10:43:25.812Z,18.01
2023-05-01T10:45:53.697Z,18.23
2023-05-01T10:48:42.413Z,18.40
2023-05-01T10:51:11.326Z,18.52
2023-05-01T10:53:39.357Z,18.42
2023-05-01T10:56:26.989Z,18.29
2023-05-01T10:58:53.656Z,18.39
2023-05-01T11:01:38.128Z,18.33
2023-05-01T11:04:27.968Z,18.17
2023-05-01T11:07:11.324Z,18.29
2023-05-01T11:09:39.296Z,18.23
2023-05-01T11:12:07.048Z,18.39
2023-05-01T11:14:52.286Z,18.71
2023-05-01T11:17:41.244Z,18.75
2023-05-01T11:20:23.979Z,18.73
2023-05-01T11:22:54.402Z,18.82
2023-05-01T11:25:27.495Z,18.83
2023-05-01T11:27:56.973Z,18.69
2023-05-01T11:30:24.332Z,18.81
2023-05-01T11:32:52.215Z,18.90
2023-05-01T11:35:21.890Z,18.89
2023-05-01T11:37:49.202Z,18.87
2023-05-01T11:40:30.309Z,19.07
2023-05-01T11:43:04.856Z,19.09
2023-05-01T11:45:33.025Z,19.13
2023-05-01T11:48:03.461Z,19.01
2023-05-01T11:50:36.066Z,18.92
2023-05-01T11:53:11.603Z,18.87
2023-05-01T12:01:49.868Z,18.71
2023-05-01T12:04:31.626Z,18.63
2023-05-01T12:06:59.218Z,18.63
2023-05-01T12:09:29.272Z,18.70
2023-05-01T12:11:59.555Z,18.81
2023-05-01T12:14:26.370Z,18.87
2023-05-01T12:16:53.417Z,18.90
2023-05-01T12:19:21.714Z,18.87
2023-05-01T12:21:48.604Z,19.15
2023-05-01T12:24:17.958Z,19.36
2023-05-01T12:26:46.122Z,19.24
2023-05-01T12:29:13.284Z,19.12
2023-05-01T12:31:48.225Z,19.18
2023-05-01T12:34:15.487Z,19.32
2023-05-01T12:36:42.257Z,19.39
2023-05-01T12:39:12.148Z,19.49
2023-05-01T12:41:40.781Z,19.46
2023-05-01T12:44:20.365Z,19.53
2023-05-01T12:46:54.911Z,19.66
2023-05-01T12:49:23.338Z,19.72
2023-05-01T12:51:55.440Z,19.58
2023-05-01T12:54:23.857Z,19.46
2023-05-01T12:56:53.330Z,19.48
2023-05-01T12:59:22.068Z,19.68
2023-05-01T13:01:57.199Z,19.85
2023-05-01T13:04:24.810Z,19.83
2023-05-01T13:06:56.069Z,19.83
2023-05-01T13:09:27.675Z,20.01
2023-05-01T13:12:02.856Z,20.22
2023-05-01T13:14:32.806Z,20.45
2023-05-01T13:16:59.452Z,20.11
2023-05-01T13:19:29.489Z,19.26
2023-05-01T13:21:58.035Z,19.64
2023-05-01T13:24:35.600Z,19.93
2023-05-01T13:27:04.861Z,19.97
2023-05-01T13:29:32.847Z,20.01
2023-05-01T13:31:59.758Z,19.88
2023-05-01T13:34:34.164Z,19.80
2023-05-01T13:37:01.808Z,19.78
2023-05-01T13:39:28.978Z,19.95
2023-05-01T13:41:56.139Z,19.87
2023-05-01T13:44:23.015Z,19.81
2023-05-01T13:46:49.996Z,19.85
2023-05-01T13:49:22.716Z,19.88
2023-05-01T13:51:49.592Z,19.59
2023-05-01T13:54:16.742Z,19.89
2023-05-01T13:56:43.406Z,20.18
2023-05-01T13:59:10.680Z,20.47
2023-05-01T14:01:45.848Z,20.43
2023-05-01T14:04:18.190Z,20.30
2023-05-01T14:06:48.382Z,20.16
2023-05-01T14:09:18.392Z,20.24
2023-05-01T14:11:46.970Z,20.27
2023-05-01T14:14:18.275Z,20.39
2023-05-01T14:16:52.065Z,20.44
2023-05-01T14:19:18.802Z,20.28
2023-05-01T14:21:46.747Z,20.22
2023-05-01T14:24:15.145Z,20.09
2023-05-01T14:26:43.599Z,20.27
2023-05-01T14:29:27.912Z,20.70
2023-05-01T14:31:55.748Z,20.87
2023-05-01T14:34:22.880Z,20.79
2023-05-01T14:36:50.260Z,20.98
2023-05-01T14:39:17.199Z,21.10
2023-05-01T14:41:43.941Z,21.19
2023-05-01T14:44:14.025Z,21.21
2023-05-01T14:46:47.064Z,21.16
2023-05-01T14:49:22.409Z,20.89
2023-05-01T14:51:49.558Z,20.59
2023-05-01T14:54:16.485Z,20.50
2023-05-01T14:56:43.978Z,20.25
2023-05-01T14:59:11.143Z,19.98
2023-05-01T15:01:38.858Z,19.82
2023-05-01T15:04:10.863Z,19.94
2023-05-01T15:06:37.946Z,19.71
2023-05-01T15:09:05.291Z,19.83
2023-05-01T15:11:32.146Z,19.52
2023-05-01T15:13:59.276Z,19.46
2023-05-01T15:16:26.609Z,19.44
2023-05-01T15:18:53.459Z,19.38
2023-05-01T15:21:20.205Z,19.50
2023-05-01T15:23:47.014Z,19.49
2023-05-01T15:26:14.170Z,19.72
2023-05-01T15:28:40.939Z,19.88
2023-05-01T15:31:07.705Z,20.28
2023-05-01T15:33:34.423Z,20.32
2023-05-01T15:36:01.168Z,20.37
2023-05-01T15:38:28.358Z,20.26
2023-05-01T15:40:56.224Z,20.44
2023-05-01T15:43:23.382Z,20.37
2023-05-01T15:45:51.286Z,20.33
2023-05-01T15:48:18.103Z,19.99
2023-05-01T15:50:46.127Z,20.03
2023-05-01T15:53:16.933Z,20.27
2023-05-01T15:55:43.656Z,20.32
2023-05-01T15:58:10.327Z,20.15
2023-05-01T16:00:39.538Z,19.71
2023-05-01T16:03:07.810Z,19.69
2023-05-01T16:05:37.091Z,19.75
2023-05-01T16:08:06.444Z,19.68
2023-05-01T16:10:37.220Z,19.53
2023-05-01T16:13:08.140Z,19.33
2023-05-01T16:15:37.693Z,19.23
2023-05-01T16:18:04.873Z,19.20
2023-05-01T16:20:42.828Z,19.29
2023-05-01T16:23:09.560Z,19.12
2023-05-01T16:25:36.305Z,19.07
2023-05-01T16:28:06.011Z,19.05
2023-05-01T16:30:32.837Z,18.87
2023-05-01T16:33:03.045Z,18.84
2023-05-01T16:35:29.801Z,18.96
2023-05-01T16:37:56.542Z,18.91
2023-05-01T16:40:23.337Z,19.09
2023-05-01T16:42:54.281Z,19.04
2023-05-01T16:45:21.689Z,19.08
2023-05-01T16:47:48.733Z,19.25
2023-05-01T16:50:16.998Z,19.27
2023-05-01T16:52:43.892Z,19.25
2023-05-01T16:55:10.750Z,19.24
2023-05-01T16:57:37.470Z,19.08
2023-05-01T17:00:09.320Z,19.15
2023-05-01T17:02:36.268Z,19.13
2023-05-01T17:05:03.342Z,19.20
2023-05-01T17:07:30.208Z,19.13
2023-05-01T17:09:56.955Z,19.12
2023-05-01T17:12:23.872Z,19.12
2023-05-01T17:14:53.657Z,19.06
2023-05-01T17:17:21.400Z,19.09
2023-05-01T17:19:48.486Z,18.94
2023-05-01T17:22:15.322Z,18.83
2023-05-01T17:24:42.025Z,18.88
2023-05-01T17:27:08.855Z,18.93
2023-05-01T17:29:35.550Z,18.90
2023-05-01T17:32:02.562Z,18.94
2023-05-01T17:34:29.483Z,18.92
2023-05-01T17:36:57.920Z,18.83
2023-05-01T17:39:25.983Z,18.64
2023-05-01T17:41:52.800Z,18.62
2023-05-01T17:44:19.558Z,18.42
2023-05-01T17:46:46.250Z,18.24
2023-05-01T17:49:14.088Z,18.12
2023-05-01T17:51:40.823Z,18.08
2023-05-01T17:54:07.626Z,18.03
2023-05-01T17:56:34.302Z,18.04
2023-05-01T17:59:01.076Z,17.92
2023-05-01T18:01:28.616Z,17.94
2023-05-01T18:03:55.595Z,17.94
2023-05-01T18:06:22.429Z,17.66
2023-05-01T18:08:50.053Z,17.77
2023-05-01T18:11:16.991Z,17.84
2023-05-01T18:13:47.262Z,17.72
2023-05-01T18:16:16.763Z,17.72
2023-05-01T18:18:43.427Z,17.59
2023-05-01T18:21:10.204Z,17.72
2023-05-01T18:23:36.891Z,17.71
2023-05-01T18:26:03.756Z,17.66
2023-05-01T18:28:31.558Z,17.64
2023-05-01T18:30:58.461Z,17.67
2023-05-01T18:33:25.284Z,17.62
2023-05-01T18:35:52.071Z,17.64
2023-05-01T18:38:18.924Z,17.54
2023-05-01T18:40:45.596Z,17.63
2023-05-01T18:43:14.034Z,17.61
2023-05-01T18:45:40.913Z,17.39
2023-05-01T18:48:08.328Z,17.34
2023-05-01T18:50:35.187Z,17.58
2023-05-01T18:53:01.848Z,17.56
2023-05-01T18:55:28.590Z,17.52
2023-05-01T18:57:55.259Z,17.39
2023-05-01T19:00:23.028Z,17.59
2023-05-01T19:02:53.006Z,17.58
2023-05-01T19:05:19.939Z,17.55
2023-05-01T19:07:46.920Z,17.38
2023-05-01T19:10:14.075Z,17.25
2023-05-01T19:12:41.991Z,17.12
2023-05-01T19:15:09.589Z,17.08
2023-05-01T19:17:36.708Z,17.23
2023-05-01T19:20:04.307Z,17.09
2023-05-01T19:22:31.841Z,16.96
2023-05-01T19:24:59.960Z,17.08
2023-05-01T19:27:26.694Z,17.11
2023-05-01T19:29:54.397Z,16.60
2023-05-01T19:32:21.165Z,16.61
2023-05-01T19:34:47.959Z,16.77
2023-05-01T19:37:14.629Z,16.76
2023-05-01T19:39:41.283Z,17.00
2023-05-01T19:42:07.970Z,16.90
2023-05-01T19:44:34.620Z,17.01
2023-05-01T19:47:01.818Z,16.65
2023-05-01T19:49:28.545Z,16.42
2023-05-01T19:51:57.450Z,16.63
2023-05-01T19:54:28.582Z,16.46
2023-05-01T19:56:56.049Z,16.36
2023-05-01T19:59:23.235Z,16.55
2023-05-01T20:01:50.094Z,16.58
2023-05-01T20:04:17.063Z,16.50
2023-05-01T20:06:43.880Z,16.05
2023-05-01T20:09:10.896Z,16.24
2023-05-01T20:11:37.648Z,16.14
2023-05-01T20:14:04.495Z,15.95
2023-05-01T20:16:31.311Z,16.12
2023-05-01T20:18:58.095Z,16.04
2023-05-01T20:21:24.859Z,15.83
2023-05-01T20:23:51.578Z,15.91
2023-05-01T20:26:18.941Z,16.06
2023-05-01T20:28:45.728Z,15.65
2023-05-01T20:31:13.373Z,16.16
2023-05-01T20:33:40.244Z,15.93
2023-05-01T20:36:07.269Z,15.87
2023-05-01T20:38:46.298Z,15.52
2023-05-01T20:41:13.631Z,15.76
2023-05-01T20:43:40.813Z,15.82
2023-05-01T20:46:07.678Z,15.70
2023-05-01T20:48:34.639Z,15.76
2023-05-01T20:51:01.443Z,15.94
2023-05-01T20:53:28.216Z,15.90
2023-05-01T20:55:54.867Z,16.15
2023-05-01T20:58:21.578Z,16.11
2023-05-01T21:00:48.255Z,15.93
2023-05-01T21:03:16.079Z,16.03
2023-05-01T21:05:42.949Z,16.09
2023-05-01T21:08:09.688Z,16.23
2023-05-01T21:10:36.791Z,16.33
2023-05-01T21:13:03.841Z,16.11
2023-05-01T21:15:31.828Z,16.08
2023-05-01T21:17:58.700Z,16.13
2023-05-01T21:20:35.343Z,15.87
2023-05-01T21:23:02.331Z,16.01
2023-05-01T21:25:31.592Z,16.06
2023-05-01T21:28:02.016Z,16.09
2023-05-01T21:30:34.657Z,15.94
2023-05-01T21:33:05.052Z,15.99
2023-05-01T21:35:32.285Z,15.86
2023-05-01T21:37:59.295Z,16.02
2023-05-01T21:40:27.020Z,15.99
2023-05-01T21:42:54.521Z,15.99
2023-05-01T21:45:21.625Z,16.01
2023-05-01T21:47:50.823Z,15.92
2023-05-01T21:50:19.867Z,15.95
2023-05-01T21:52:50.892Z,15.99
2023-05-01T21:55:24.345Z,16.08
2023-05-01T21:57:51.120Z,15.86
2023-05-01T22:00:19.075Z,15.62
2023-05-01T22:02:48.134Z,15.84
2023-05-01T22:05:17.883Z,15.97
2023-05-01T22:07:46.976Z,15.71
2023-05-01T22:10:18.466Z,15.42
2023-05-01T22:12:46.101Z,15.77
2023-05-01T22:15:15.474Z,15.77
2023-05-01T22:17:42.719Z,15.53
2023-05-01T22:20:09.973Z,15.53
2023-05-01T22:22:38.202Z,15.81
2023-05-01T22:25:06.242Z,15.66
2023-05-01T22:27:33.566Z,15.98
2023-05-01T22:30:01.063Z,15.80
2023-05-01T22:32:30.779Z,15.93
2023-05-01T22:34:57.661Z,15.92
2023-05-01T22:37:25.751Z,15.98
2023-05-01T22:39:53.326Z,16.00
2023-05-01T22:42:20.036Z,15.68
2023-05-01T22:44:46.821Z,15.64
2023-05-01T22:47:13.536Z,15.69
2023-05-01T22:49:40.220Z,15.96
2023-05-01T22:52:07.042Z,16.03
2023-05-01T22:54:33.816Z,15.95
2023-05-01T22:57:00.599Z,15.78
2023-05-01T22:59:27.346Z,15.85
2023-05-01T23:01:54.641Z,15.83
2023-05-01T23:04:21.510Z,15.88
2023-05-01T23:06:48.252Z,15.65
2023-05-01T23:09:15.644Z,15.35
2023-05-01T23:11:42.404Z,15.59
2023-05-01T23:14:09.489Z,15.58
2023-05-01T23:16:41.233Z,15.48
2023-05-01T23:19:20.247Z,15.58
2023-05-01T23:21:47.903Z,15.49
2023-05-01T23:24:21.053Z,15.87
2023-05-01T23:26:48.844Z,15.82
2023-05-01T23:29:18.183Z,15.70
2023-05-01T23:31:47.628Z,15.57
2023-05-01T23:34:17.227Z,15.80
2023-05-01T23:36:46.085Z,15.70
2023-05-01T23:39:13.338Z,15.70
2023-05-01T23:41:40.490Z,15.68
2023-05-01T23:44:07.751Z,15.54
2023-05-01T23:46:34.674Z,15.55
2023-05-01T23:49:01.553Z,15.80
2023-05-01T23:51:28.816Z,15.62
2023-05-01T23:53:55.614Z,15.44
2023-05-01T23:56:22.284Z,15.49
2023-05-01T23:58:48.976Z,15.28
